Time;durP1;ratioP1;P1;durP2;ratioP2;P2;SDS_P1;SDS_P2;PMS_P1;PMS_P2;Temp;Humidity;BMP_temperature;BMP_pressure;BME280_temperature;BME280_humidity;BME280_pressure;Samples;Min_cycle;Max_cycle;Signal;HPM_P1;HPM_P2
2022/04/08 00:02:14;;;;;;;;;;;;;;;9.52;69.48;98581.21;1659399;85;21052;-71
2022/04/08 00:04:44;;;;;;;10.90;2.70;;;;;;;9.50;69.43;98577.97;1646849;84;20188;-71
2022/04/08 00:07:11;;;;;;;11.67;2.20;;;;;;;9.43;69.75;98577.77;1653654;85;21090;-71
2022/04/08 00:09:38;;;;;;;9.37;2.37;;;;;;;9.42;70.37;98573.46;1643943;85;21072;-71
2022/04/08 00:12:07;;;;;;;10.40;2.57;;;;;;;9.42;70.22;98572.97;1644965;85;21088;-69
2022/04/08 00:14:37;;;;;;;10.27;2.70;;;;;;;9.44;70.27;98577.55;1656128;85;21204;-72
2022/04/08 00:17:04;;;;;;;11.80;2.03;;;;;;;9.42;70.79;98576.95;1653097;85;21074;-72
2022/04/08 00:19:32;;;;;;;11.13;2.20;;;;;;;9.41;70.72;98585.95;1651001;85;21144;-72
2022/04/08 00:21:58;;;;;;;14.53;2.47;;;;;;;9.35;71.14;98581.02;1645791;85;21025;-70
2022/04/08 00:24:25;;;;;;;10.28;2.65;;;;;;;9.32;71.39;98579.31;1656348;85;21574;-72
2022/04/08 00:26:51;;;;;;;11.28;2.27;;;;;;;9.26;71.92;98569.58;1655909;86;21615;-70
2022/04/08 00:31:02;;;;;;;11.57;1.57;;;;;;;9.28;72.03;98567.51;1807580;78;22548;-73
2022/04/08 00:33:32;;;;;;;6.60;1.93;;;;;;;9.16;72.40;98570.91;1767938;79;21181;-71
2022/04/08 00:36:01;;;;;;;12.27;2.70;;;;;;;9.14;72.53;98559.69;1695761;84;21597;-71
2022/04/08 00:38:28;;;;;;;8.47;1.80;;;;;;;9.10;72.81;98566.49;1692712;84;21087;-71
2022/04/08 00:40:54;;;;;;;10.85;2.37;;;;;;;9.10;72.93;98559.84;1695160;84;21069;-72
2022/04/08 00:43:32;;;;;;;16.13;3.63;;;;;;;9.11;72.90;98555.34;1691587;84;21574;-73
2022/04/08 00:46:00;;;;;;;6.63;2.30;;;;;;;9.10;72.75;98545.23;1684097;84;21016;-71
2022/04/08 00:48:26;;;;;;;10.90;2.13;;;;;;;9.05;73.74;98547.73;1677928;84;21075;-71
2022/04/08 00:50:53;;;;;;;15.00;3.25;;;;;;;9.02;73.89;98545.51;1690319;84;21157;-73
2022/04/08 00:53:22;;;;;;;11.27;2.30;;;;;;;8.98;74.33;98534.23;1694152;84;21102;-71
2022/04/08 00:55:50;;;;;;;9.33;2.83;;;;;;;8.90;75.01;98530.83;1682008;84;21060;-70
2022/04/08 00:58:18;;;;;;;11.20;2.43;;;;;;;8.89;75.20;98527.06;1676591;84;21038;-71
2022/04/08 01:00:45;;;;;;;12.97;2.40;;;;;;;8.87;75.54;98527.80;1693943;83;21027;-72
2022/04/08 01:03:13;;;;;;;13.47;2.07;;;;;;;8.81;76.51;98531.34;1707957;83;21140;-72
2022/04/08 01:05:42;;;;;;;14.70;2.23;;;;;;;8.82;76.37;98514.39;1661782;84;21125;-71
2022/04/08 01:08:12;;;;;;;8.30;2.20;;;;;;;8.77;76.89;98511.86;1635219;85;21070;-73
2022/04/08 01:10:40;;;;;;;15.13;2.63;;;;;;;8.77;76.98;98508.39;1640516;85;21141;-73
2022/04/08 01:13:07;;;;;;;13.87;2.67;;;;;;;8.77;76.69;98510.53;1688676;83;20954;-72
2022/04/08 01:15:36;;;;;;;6.97;2.07;;;;;;;8.75;77.21;98509.94;1656418;84;21133;-73
2022/04/08 01:18:05;;;;;;;15.50;2.30;;;;;;;8.73;77.33;98505.89;1648144;85;21111;-73
2022/04/08 01:20:34;;;;;;;11.63;3.57;;;;;;;8.71;77.41;98499.99;1678108;84;21034;-72
2022/04/08 01:23:02;;;;;;;6.67;2.00;;;;;;;8.71;77.36;98505.30;1675186;83;21054;-70
2022/04/08 01:25:29;;;;;;;;;;;;;;;8.68;77.67;98515.03;1680609;83;21120;-72
2022/04/08 01:27:56;;;;;;;10.68;3.12;;;;;;;8.70;77.61;98508.48;1680969;83;20113;-73
2022/04/08 01:30:22;;;;;;;;;;;;;;;8.62;77.96;98515.92;1677700;83;21083;-73
2022/04/08 01:32:50;;;;;;;;;;;;;;;8.60;78.08;98509.49;1672566;84;20189;-69
2022/04/08 01:35:17;;;;;;;8.47;2.47;;;;;;;8.54;78.68;98502.41;1646036;84;20452;-70
2022/04/08 01:37:44;;;;;;;10.97;3.23;;;;;;;8.46;79.41;98504.84;1626217;86;21055;-72
2022/04/08 01:40:13;;;;;;;10.93;2.83;;;;;;;8.44;79.49;98497.62;1640042;86;21139;-71
2022/04/08 01:42:40;;;;;;;11.03;2.53;;;;;;;8.40;80.00;98491.09;1618698;87;21504;-72
2022/04/08 01:45:09;;;;;;;6.83;2.40;;;;;;;8.38;80.03;98480.69;1624624;86;21532;-72
2022/04/08 01:47:38;;;;;;;13.83;2.73;;;;;;;8.37;80.17;98476.40;1736134;81;22173;-71
2022/04/08 01:50:07;;;;;;;9.47;2.50;;;;;;;8.40;79.94;98480.47;1723237;81;21113;-68
2022/04/08 01:52:34;;;;;;;12.77;2.57;;;;;;;8.37;80.16;98471.61;1740777;80;21148;-71
2022/04/08 01:55:05;;;;;;;14.53;3.03;;;;;;;8.37;79.90;98471.61;1736578;81;21113;-67
2022/04/08 01:57:31;;;;;;;10.50;2.20;;;;;;;8.35;80.30;98470.50;1733540;81;21042;-71
2022/04/08 01:59:59;;;;;;;12.97;3.10;;;;;;;8.36;80.20;98468.16;1732872;81;21117;-72
2022/04/08 02:02:26;;;;;;;;;;;;;;;8.34;80.24;98477.34;1684454;83;22173;-70
2022/04/08 02:04:53;;;;;;;9.63;4.25;;;;;;;8.34;80.14;98466.73;1668857;84;20161;-72
2022/04/08 02:07:20;;;;;;;;;;;;;;;8.26;80.43;98467.83;1663055;84;21085;-72
2022/04/08 02:09:46;;;;;;;8.63;2.67;;;;;;;8.25;80.47;98468.87;1678445;84;20151;-69
2022/04/08 02:12:14;;;;;;;15.17;3.27;;;;;;;8.19;80.59;98469.23;1697582;83;21389;-71
2022/04/08 02:14:41;;;;;;;15.68;4.08;;;;;;;8.18;80.89;98478.21;1697047;83;21049;-71
2022/04/08 02:17:09;;;;;;;15.70;4.10;;;;;;;8.12;81.25;98483.08;1708233;82;21062;-71
2022/04/08 02:19:38;;;;;;;12.77;3.43;;;;;;;8.12;80.85;98472.98;1710147;83;21144;-72
2022/04/08 02:22:06;;;;;;;12.07;3.03;;;;;;;8.14;80.76;98472.25;1704852;82;21028;-70
2022/04/08 02:24:33;;;;;;;9.70;2.87;;;;;;;8.13;81.08;98473.27;1714004;81;21002;-70
2022/04/08 02:26:59;;;;;;;11.57;3.13;;;;;;;8.10;81.32;98469.22;1723484;81;20971;-71
2022/04/08 02:29:26;;;;;;;;;;;;;;;8.09;81.22;98469.42;1713048;81;21248;-71
2022/04/08 02:31:55;;;;;;;14.23;3.13;;;;;;;8.03;81.74;98477.73;1726536;81;20498;-70
2022/04/08 02:34:21;;;;;;;10.90;2.40;;;;;;;7.97;81.64;98482.08;1698429;82;21141;-72
2022/04/08 02:36:47;;;;;;;12.10;3.15;;;;;;;7.97;81.82;98482.08;1701685;82;21074;-70
2022/04/08 02:39:15;;;;;;;8.87;3.20;;;;;;;7.97;81.74;98483.40;1703713;82;21054;-70
2022/04/08 02:41:41;;;;;;;8.15;2.60;;;;;;;7.99;81.65;98486.64;1702474;82;21122;-73
2022/04/08 02:44:09;;;;;;;16.03;2.80;;;;;;;8.01;81.82;98485.63;1705126;82;21121;-69
2022/04/08 02:46:35;;;;;;;12.27;3.73;;;;;;;7.97;82.12;98478.61;1694573;82;21164;-71
2022/04/08 02:49:02;;;;;;;11.12;3.00;;;;;;;7.96;82.08;98478.30;1711507;82;21091;-71
2022/04/08 02:51:30;;;;;;;11.17;4.07;;;;;;;7.92;82.28;98480.58;1702269;82;21066;-72
2022/04/08 02:53:57;;;;;;;14.10;3.97;;;;;;;7.88;82.38;98469.30;1710624;82;21046;-72
2022/04/08 02:56:23;;;;;;;15.40;4.05;;;;;;;7.84;82.95;98468.92;1687939;82;21524;-73
2022/04/08 02:58:51;;;;;;;12.63;3.33;;;;;;;7.86;82.57;98464.20;1631309;86;21421;-70
2022/04/08 03:01:18;;;;;;;9.70;2.50;;;;;;;7.85;82.78;98469.20;1610159;87;21088;-68
2022/04/08 03:03:44;;;;;;;;;;;;;;;7.86;82.57;98466.86;1656505;86;21256;-68
2022/04/08 03:06:12;;;;;;;8.73;2.70;;;;;;;7.82;83.17;98456.39;1619587;87;20183;-70
2022/04/08 03:08:38;;;;;;;10.10;3.53;;;;;;;7.76;83.09;98447.45;1612928;87;21225;-71
2022/04/08 03:11:05;;;;;;;14.63;3.62;;;;;;;7.75;83.19;98449.80;1683840;83;21071;-70
2022/04/08 03:13:33;;;;;;;11.60;3.40;;;;;;;7.75;83.54;98450.32;1707610;82;21703;-71
2022/04/08 03:16:02;;;;;;;21.43;4.53;;;;;;;7.73;83.75;98455.03;1721692;82;21052;-71
2022/04/08 03:18:29;;;;;;;9.23;3.73;;;;;;;7.73;83.74;98452.38;1716761;82;21058;-71
2022/04/08 03:20:56;;;;;;;9.63;3.97;;;;;;;7.72;83.81;98450.25;1708912;82;21627;-70
2022/04/08 03:23:24;;;;;;;15.32;4.12;;;;;;;7.71;83.97;98451.27;1700393;82;21053;-71
2022/04/08 03:25:53;;;;;;;12.40;4.13;;;;;;;7.71;83.95;98456.56;1666111;84;21133;-70
2022/04/08 03:28:19;;;;;;;17.30;4.97;;;;;;;7.71;83.74;98453.91;1639257;86;21030;-72
2022/04/08 03:30:46;;;;;;;10.88;4.40;;;;;;;7.74;83.61;98446.86;1686317;83;21157;-72
2022/04/08 03:33:12;;;;;;;14.58;4.10;;;;;;;7.77;83.46;98449.06;1711018;82;21029;-72
2022/04/08 03:35:39;;;;;;;13.10;3.53;;;;;;;7.81;83.29;98444.14;1697472;83;21594;-72
2022/04/08 03:38:06;;;;;;;8.77;3.70;;;;;;;7.78;83.65;98450.70;1691480;83;21613;-72
2022/04/08 03:40:35;;;;;;;12.82;3.72;;;;;;;7.76;83.70;98449.27;1690965;83;21042;-72
2022/04/08 03:43:03;;;;;;;12.33;3.10;;;;;;;7.74;83.83;98446.03;1698228;83;21054;-70
2022/04/08 03:45:30;;;;;;;16.13;3.57;;;;;;;7.73;83.94;98449.73;1679969;83;21168;-72
2022/04/08 03:47:57;;;;;;;15.43;3.87;;;;;;;7.73;83.99;98461.14;1680522;83;21097;-72
2022/04/08 03:50:25;;;;;;;10.40;3.33;;;;;;;7.72;84.28;98460.02;1695800;83;21554;-73
2022/04/08 03:52:52;;;;;;;15.10;3.73;;;;;;;7.73;84.21;98466.97;1676101;83;21076;-72
2022/04/08 03:55:19;;;;;;;16.15;3.72;;;;;;;7.76;84.02;98472.66;1644780;85;21082;-70
2022/04/08 03:57:47;;;;;;;10.93;3.47;;;;;;;7.84;83.89;98472.90;1621529;86;21177;-73
2022/04/08 04:00:16;;;;;;;11.13;3.00;;;;;;;7.90;83.62;98472.02;1632786;86;21062;-72
2022/04/08 04:02:42;;;;;;;11.53;3.83;;;;;;;7.93;83.53;98460.99;1655169;85;21159;-71
2022/04/08 04:05:10;;;;;;;;;;;;;;;7.93;83.42;98466.30;1645651;85;21615;-73
2022/04/08 04:07:38;;;;;;;12.37;3.17;;;;;;;7.94;83.37;98461.27;1658861;85;20280;-67
2022/04/08 04:10:06;;;;;;;11.70;3.43;;;;;;;7.90;83.57;98472.55;1660276;86;21171;-72
2022/04/08 04:12:33;;;;;;;12.60;3.80;;;;;;;7.88;83.89;98467.45;1644231;85;21070;-72
2022/04/08 04:15:03;;;;;;;12.67;4.00;;;;;;;7.91;83.62;98468.85;1617077;87;21686;-71
2022/04/08 04:17:30;;;;;;;11.33;3.73;;;;;;;7.83;83.64;98439.43;1688292;83;21110;-73
2022/04/08 04:19:57;;;;;;;20.77;3.50;;;;;;;7.90;83.83;98445.50;1687171;83;21101;-71
2022/04/08 04:22:24;;;;;;;11.48;3.33;;;;;;;7.88;83.91;98436.14;1677836;83;21160;-74
2022/04/08 04:24:53;;;;;;;13.53;3.37;;;;;;;7.88;83.78;98441.45;1708454;82;21545;-71
2022/04/08 04:27:21;;;;;;;9.80;3.20;;;;;;;7.84;84.09;98440.27;1702838;82;21026;-71
2022/04/08 04:29:47;;;;;;;11.03;3.53;;;;;;;7.84;83.85;98446.89;1714385;82;21110;-71
2022/04/08 04:32:18;;;;;;;11.53;4.23;;;;;;;7.80;84.18;98436.70;1704926;82;22019;-71
2022/04/08 04:34:45;;;;;;;11.70;3.67;;;;;;;7.78;84.17;98431.33;1684639;83;21036;-71
2022/04/08 04:37:11;;;;;;;10.63;4.03;;;;;;;7.79;84.25;98431.61;1686859;83;21653;-69
2022/04/08 04:39:38;;;;;;;15.70;3.87;;;;;;;7.81;84.22;98424.25;1671952;83;21356;-71
2022/04/08 04:42:07;;;;;;;10.63;3.90;;;;;;;7.78;84.12;98418.08;1679029;83;21489;-71
2022/04/08 04:44:35;;;;;;;17.93;4.60;;;;;;;7.78;84.19;98424.18;1667198;83;21005;-72
2022/04/08 04:47:02;;;;;;;13.40;4.95;;;;;;;7.73;84.44;98421.88;1652191;85;21673;-73
2022/04/08 04:49:29;;;;;;;21.00;9.20;;;;;;;7.72;84.28;98406.98;1657427;84;21106;-73
2022/04/08 04:51:56;;;;;;;21.87;13.47;;;;;;;7.75;84.34;98411.34;1653945;85;21106;-73
2022/04/08 04:54:22;;;;;;;36.03;17.12;;;;;;;7.79;84.15;98424.98;1615119;87;21102;-72
2022/04/08 04:56:50;;;;;;;32.17;17.83;;;;;;;7.87;84.01;98430.53;1653512;84;21374;-72
2022/04/08 04:59:18;;;;;;;;;;;;;;;7.93;83.73;98442.42;1662370;84;21080;-72
2022/04/08 05:01:45;;;;;;;19.73;10.90;;;;;;;7.96;83.49;98432.68;1677058;83;20598;-70
2022/04/08 05:04:12;;;;;;;16.23;7.67;;;;;;;7.87;83.71;98420.72;1680551;83;21104;-71
2022/04/08 05:06:38;;;;;;;16.70;5.22;;;;;;;7.82;83.97;98413.95;1649677;85;21101;-72
2022/04/08 05:09:05;;;;;;;;;;;;;;;7.83;83.88;98422.71;1658538;85;21121;-71
2022/04/08 05:11:33;;;;;;;8.77;4.07;;;;;;;7.83;83.94;98419.53;1642272;83;20527;-70
2022/04/08 05:14:01;;;;;;;12.43;4.43;;;;;;;7.75;84.13;98407.89;1675028;83;21054;-72
2022/04/08 05:16:31;;;;;;;10.30;3.63;;;;;;;7.83;83.95;98414.75;1681748;83;22179;-72
2022/04/08 05:18:57;;;;;;;8.97;3.17;;;;;;;7.90;83.66;98413.66;1729685;81;21529;-73
2022/04/08 05:21:29;;;;;;;18.13;5.60;;;;;;;7.98;83.51;98421.86;1714838;81;21086;-73
2022/04/08 05:23:54;;;;;;;15.97;5.60;;;;;;;8.11;83.18;98426.23;1726839;81;21294;-72
2022/04/08 05:26:21;;;;;;;19.27;3.90;;;;;;;8.33;82.85;98425.30;1736890;81;21043;-72
2022/04/08 05:28:50;;;;;;;11.23;3.83;;;;;;;8.51;81.39;98422.69;1724273;81;21065;-73
2022/04/08 05:31:17;;;;;;;18.37;4.13;;;;;;;8.69;80.01;98408.57;1739026;81;21126;-69
2022/04/08 05:33:44;;;;;;;11.80;3.27;;;;;;;8.76;79.44;98393.37;1716708;81;21092;-69
2022/04/08 05:36:12;;;;;;;8.47;4.33;;;;;;;8.85;78.81;98389.86;1670139;84;21028;-71
2022/04/08 05:38:38;;;;;;;;;;;;;;;8.97;78.72;98400.56;1669534;83;21070;-73
2022/04/08 05:41:04;;;;;;;10.63;3.00;;;;;;;8.99;77.90;98382.55;1672304;83;20142;-71
2022/04/08 05:43:33;;;;;;;13.77;3.93;;;;;;;9.06;77.92;98391.73;1671842;83;21214;-72
2022/04/08 05:45:59;;;;;;;15.30;3.57;;;;;;;9.19;77.40;98376.92;1674349;84;21124;-73
2022/04/08 05:48:26;;;;;;;6.65;3.17;;;;;;;9.41;76.62;98383.06;1670318;84;21133;-73
2022/04/08 05:50:52;;;;;;;9.85;3.55;;;;;;;9.54;75.70;98374.87;1670137;84;21185;-71
2022/04/08 05:53:19;;;;;;;10.65;3.75;;;;;;;9.68;75.01;98368.30;1670817;84;21030;-74
2022/04/08 05:55:46;;;;;;;13.80;4.30;;;;;;;9.79;74.47;98365.86;1661407;84;21541;-68
2022/04/08 05:58:12;;;;;;;;;;;;;;;9.82;74.30;98360.09;1649057;85;21086;-73
2022/04/08 06:00:41;;;;;;;10.00;3.17;;;;;;;9.83;74.11;98351.88;1643543;85;20110;-72
2022/04/08 06:03:09;;;;;;;10.47;3.17;;;;;;;9.86;73.94;98366.55;1656717;85;21074;-73
2022/04/08 06:05:35;;;;;;;9.10;4.63;;;;;;;10.04;74.02;98370.93;1636281;86;21071;-74
2022/04/08 06:08:02;;;;;;;;;;;;;;;10.28;72.85;98361.89;1643953;86;21629;-69
2022/04/08 06:10:30;;;;;;;13.60;3.13;;;;;;;9.94;71.97;98308.98;1641015;86;20421;-74
2022/04/08 06:12:57;;;;;;;15.73;4.20;;;;;;;10.05;72.51;98361.38;1656475;85;21065;-72
2022/04/08 06:15:27;;;;;;;9.93;3.60;;;;;;;9.91;73.13;98365.35;1657920;85;21583;-73
2022/04/08 06:17:56;;;;;;;12.33;4.17;;;;;;;9.76;73.60;98359.16;1659881;85;21334;-70
2022/04/08 06:20:23;;;;;;;11.30;3.57;;;;;;;9.66;73.98;98362.90;1671770;85;21408;-72
2022/04/08 06:22:53;;;;;;;10.37;3.80;;;;;;;9.55;74.72;98360.55;1647680;85;21027;-74
2022/04/08 06:25:24;;;;;;;13.63;4.13;;;;;;;9.12;74.95;98305.27;1618814;87;21198;-74
2022/04/08 06:28:04;;;;;;;12.73;4.00;;;;;;;9.49;75.23;98358.28;1619418;87;21118;-71
2022/04/08 06:30:34;;;;;;;8.67;3.33;;;;;;;9.63;75.15;98370.83;1618315;87;21056;-75
2022/04/08 06:33:05;;;;;;;15.63;4.23;;;;;;;9.86;74.00;98366.03;1619207;87;22277;-72
2022/04/08 06:35:33;;;;;;;8.73;3.27;;;;;;;10.00;73.35;98367.12;1609831;87;21087;-75
2022/04/08 06:38:02;;;;;;;13.50;3.47;;;;;;;10.03;72.82;98371.45;1631110;86;21048;-74
2022/04/08 06:40:32;;;;;;;9.07;3.23;;;;;;;10.06;72.67;98372.33;1630545;86;21613;-73
2022/04/08 06:43:00;;;;;;;17.97;5.10;;;;;;;10.11;72.21;98355.66;1631149;86;21677;-73
2022/04/08 06:45:27;;;;;;;13.20;4.73;;;;;;;10.02;72.31;98366.36;1622159;86;21035;-72
2022/04/08 06:47:54;;;;;;;;;;;;;;;9.89;72.87;98364.77;1614640;87;21076;-68
2022/04/08 06:50:21;;;;;;;12.20;3.62;;;;;;;9.85;73.10;98373.73;1613589;87;21005;-72
2022/04/08 06:52:50;;;;;;;8.03;2.93;;;;;;;9.80;73.32;98369.63;1614427;87;21556;-74
2022/04/08 06:55:18;;;;;;;12.50;3.77;;;;;;;9.91;73.07;98367.48;1641699;85;21066;-72
2022/04/08 06:57:47;;;;;;;8.83;2.60;;;;;;;10.07;72.74;98377.93;1667241;84;21073;-70
2022/04/08 07:00:15;;;;;;;13.83;3.53;;;;;;;10.23;71.99;98378.28;1666494;84;21500;-74
2022/04/08 07:02:41;;;;;;;10.40;3.90;;;;;;;10.23;71.49;98378.28;1670937;84;21206;-74
2022/04/08 07:05:09;;;;;;;9.75;4.08;;;;;;;10.14;71.94;98365.84;1670228;84;21144;-72
2022/04/08 07:07:38;;;;;;;14.70;4.20;;;;;;;10.15;71.93;98374.10;1670879;84;21065;-73
2022/04/08 07:10:07;;;;;;;9.57;3.63;;;;;;;10.31;72.18;98381.94;1671054;84;21053;-72
2022/04/08 07:12:36;;;;;;;8.40;3.27;;;;;;;10.58;71.28;98374.75;1669198;84;21009;-74
2022/04/08 07:15:07;;;;;;;11.00;3.23;;;;;;;10.78;70.42;98376.48;1717338;82;21039;-73
2022/04/08 07:17:37;;;;;;;16.30;3.63;;;;;;;10.85;69.75;98377.66;1713394;82;21040;-72
2022/04/08 07:20:07;;;;;;;14.53;4.50;;;;;;;10.94;69.49;98372.23;1723700;82;21099;-73
2022/04/08 07:22:34;;;;;;;10.73;3.67;;;;;;;11.05;68.39;98378.56;1713104;82;21002;-75
2022/04/08 07:25:01;;;;;;;14.37;4.37;;;;;;;11.03;68.55;98380.66;1669390;84;21075;-73
2022/04/08 07:27:28;;;;;;;15.10;3.40;;;;;;;10.99;68.42;98383.00;1667377;84;21155;-74
2022/04/08 07:29:56;;;;;;;16.43;3.37;;;;;;;11.03;68.16;98386.80;1677704;84;21036;-74
2022/04/08 07:32:23;;;;;;;9.53;3.13;;;;;;;11.12;68.12;98392.56;1663558;84;21206;-72
2022/04/08 07:34:51;;;;;;;11.15;2.17;;;;;;;11.19;67.73;98384.40;1714615;82;21106;-72
2022/04/08 07:37:32;;;;;;;8.10;3.00;;;;;;;11.25;67.27;98386.93;1720966;82;21539;-74
2022/04/08 07:40:01;;;;;;;10.57;3.33;;;;;;;11.19;67.08;98389.73;1714366;82;21075;-73
2022/04/08 07:42:27;;;;;;;6.77;2.70;;;;;;;11.15;67.36;98386.77;1711715;82;21195;-71
2022/04/08 07:44:55;;;;;;;12.40;3.40;;;;;;;11.15;67.35;98394.77;1693772;82;21032;-73
2022/04/08 07:47:27;;;;;;;10.07;3.30;;;;;;;11.18;67.46;98396.12;1678122;83;21011;-74
2022/04/08 07:50:02;;;;;;;9.60;2.80;;;;;;;11.26;67.51;98399.73;1676069;83;21129;-74
2022/04/08 07:52:30;;;;;;;10.60;3.25;;;;;;;11.42;67.26;98390.95;1670483;83;21068;-72
2022/04/08 07:54:58;;;;;;;8.77;3.00;;;;;;;11.52;66.31;98397.51;1673215;83;21051;-74
2022/04/08 07:57:26;;;;;;;8.40;3.23;;;;;;;11.53;65.94;98394.60;1689251;83;21140;-73
2022/04/08 07:59:54;;;;;;;11.77;3.47;;;;;;;11.56;65.97;98390.09;1682302;83;21049;-74
2022/04/08 08:02:21;;;;;;;12.33;4.17;;;;;;;11.56;65.43;98383.42;1690781;83;21065;-75
2022/04/08 08:04:49;;;;;;;10.97;3.03;;;;;;;11.62;65.39;98389.15;1682922;83;21106;-71
2022/04/08 08:07:16;;;;;;;11.87;3.30;;;;;;;11.73;65.22;98384.76;1687286;83;21098;-73
2022/04/08 08:09:42;;;;;;;12.20;3.43;;;;;;;11.83;64.20;98393.47;1690144;83;21639;-72
2022/04/08 08:12:10;;;;;;;14.50;4.20;;;;;;;11.91;63.80;98399.75;1684257;83;20998;-76
2022/04/08 08:14:38;;;;;;;16.45;3.25;;;;;;;12.02;63.05;98395.38;1643401;86;21076;-73
2022/04/08 08:17:05;;;;;;;;;;;;;;;12.15;63.14;98388.36;1675892;84;21049;-74
2022/04/08 08:19:32;;;;;;;4.93;2.50;;;;;;;12.33;62.09;98382.44;1674200;84;20138;-73
2022/04/08 08:21:59;;;;;;;9.17;2.63;;;;;;;12.39;61.29;98382.77;1637884;86;21052;-74
2022/04/08 08:24:29;;;;;;;9.83;3.13;;;;;;;12.48;60.98;98377.81;1673785;84;21104;-73
2022/04/08 08:26:56;;;;;;;16.77;3.25;;;;;;;12.58;60.46;98381.94;1675583;84;21114;-73
2022/04/08 08:29:24;;;;;;;11.57;2.87;;;;;;;12.69;60.08;98368.97;1673607;84;21637;-74
2022/04/08 08:31:51;;;;;;;8.53;2.42;;;;;;;12.77;59.08;98368.55;1671194;84;21526;-73
2022/04/08 08:34:17;;;;;;;10.65;3.33;;;;;;;12.84;58.73;98354.42;1687257;83;21085;-74
2022/04/08 08:36:44;;;;;;;10.75;2.02;;;;;;;12.85;58.29;98340.55;1694613;83;21105;-72
2022/04/08 08:39:10;;;;;;;13.50;2.92;;;;;;;12.91;58.30;98346.22;1695597;83;21024;-72
2022/04/08 08:41:37;;;;;;;;;;;;;;;12.89;58.29;98342.99;1701399;83;21058;-73
2022/04/08 08:44:05;;;;;;;7.42;1.77;;;;;;;12.94;58.31;98344.89;1683784;83;20156;-73
2022/04/08 08:46:35;;;;;;;10.03;2.70;;;;;;;12.79;57.38;98349.05;1681880;83;21057;-74
2022/04/08 08:49:04;;;;;;;14.75;3.08;;;;;;;12.70;57.83;98327.03;1691667;82;21105;-73
2022/04/08 08:51:36;;;;;;;9.88;2.65;;;;;;;12.69;57.91;98322.19;1685146;83;21006;-73
2022/04/08 08:54:03;;;;;;;11.50;2.37;;;;;;;12.73;57.17;98321.16;1678569;83;21188;-74
2022/04/08 08:56:30;;;;;;;8.30;2.87;;;;;;;12.74;57.08;98304.08;1697295;82;21287;-70
2022/04/08 08:58:56;;;;;;;;;;;;;;;12.80;57.31;98309.74;1693894;83;21059;-75
2022/04/08 09:01:23;;;;;;;13.80;3.12;;;;;;;12.95;56.43;98329.94;1690731;83;20127;-73
2022/04/08 09:03:51;;;;;;;11.80;3.17;;;;;;;13.01;54.49;98318.77;1697967;82;21077;-70
2022/04/08 09:06:18;;;;;;;7.95;2.42;;;;;;;13.09;54.28;98327.68;1652221;85;21060;-74
2022/04/08 09:08:58;;;;;;;11.45;3.17;;;;;;;13.12;53.89;98325.02;1655038;85;21041;-73
2022/04/08 09:11:28;;;;;;;12.70;3.27;;;;;;;13.20;54.33;98325.38;1678240;83;21065;-75
2022/04/08 09:14:02;;;;;;;9.50;2.62;;;;;;;13.22;54.61;98330.45;1651644;85;21073;-75
2022/04/08 09:16:35;;;;;;;18.75;3.60;;;;;;;13.21;54.36;98328.31;1656245;85;21089;-74
2022/04/08 09:18:59;;;;;;;12.70;3.47;;;;;;;13.27;54.06;98332.37;1669344;83;21090;-73
2022/04/08 09:21:28;;;;;;;9.00;3.12;;;;;;;13.29;53.58;98328.37;1607999;86;21107;-72
2022/04/08 09:24:01;;;;;;;12.15;3.33;;;;;;;13.34;53.40;98325.77;1688645;83;21014;-75
2022/04/08 09:26:35;;;;;;;13.13;3.65;;;;;;;13.34;53.45;98329.79;1691390;83;21561;-72
2022/04/08 09:29:05;;;;;;;15.08;3.65;;;;;;;13.34;53.29;98332.47;1693429;82;21636;-74
2022/04/08 09:31:34;;;;;;;14.68;3.60;;;;;;;13.36;53.69;98333.55;1650179;85;21080;-74
2022/04/08 09:34:01;;;;;;;7.10;2.77;;;;;;;13.40;53.64;98331.44;1649572;84;21042;-75
2022/04/08 09:36:32;;;;;;;8.68;3.25;;;;;;;13.48;53.86;98322.66;1662050;84;21058;-74
2022/04/08 09:39:00;;;;;;;10.43;3.85;;;;;;;13.53;53.66;98323.51;1657724;84;21010;-75
2022/04/08 09:41:49;;;;;;;5.80;3.05;;;;;;;13.58;53.21;98326.73;1629621;85;21062;-73
2022/04/08 09:44:27;;;;;;;7.05;3.30;;;;;;;13.64;52.35;98332.42;1676527;82;21502;-73
2022/04/08 09:46:55;;;;;;;16.35;3.75;;;;;;;13.62;52.22;98338.03;1700569;84;21129;-70
2022/04/08 09:49:24;;;;;;;7.45;4.45;;;;;;;13.62;51.90;98345.27;1675796;85;21053;-73
2022/04/08 09:51:56;;;;;;;11.70;4.15;;;;;;;13.56;52.16;98335.56;1632054;86;22279;-76
2022/04/08 09:54:28;;;;;;;8.60;4.58;;;;;;;13.58;52.47;98338.78;1668386;85;21015;-74
2022/04/08 09:57:01;;;;;;;11.70;4.50;;;;;;;13.62;52.48;98340.70;1648888;85;21168;-75
2022/04/08 09:59:30;;;;;;;14.75;4.03;;;;;;;13.72;52.67;98338.63;1660078;84;21068;-74
2022/04/08 10:01:59;;;;;;;14.13;4.55;;;;;;;13.77;52.63;98330.64;1692980;82;21004;-75
2022/04/08 10:04:28;;;;;;;15.23;4.03;;;;;;;13.88;52.54;98323.48;1692655;83;21195;-73
2022/04/08 10:06:56;;;;;;;12.90;4.80;;;;;;;13.97;52.40;98317.88;1675473;85;21145;-76
2022/04/08 10:09:29;;;;;;;11.50;4.60;;;;;;;14.04;52.14;98312.30;1681004;83;21095;-75
2022/04/08 10:12:20;;;;;;;12.80;5.33;;;;;;;14.08;51.97;98312.59;1680907;85;21340;-74
2022/04/08 10:15:03;;;;;;;8.70;4.75;;;;;;;13.80;51.93;98268.52;1675569;85;22458;-72
2022/04/08 10:17:32;;;;;;;10.70;4.92;;;;;;;14.20;52.03;98322.55;1676285;83;21482;-75
2022/04/08 10:20:22;;;;;;;13.55;4.00;;;;;;;14.26;51.95;98330.07;1681589;85;21067;-74
2022/04/08 10:22:51;;;;;;;9.28;4.45;;;;;;;14.29;52.04;98325.00;1679098;83;22366;-73
2022/04/08 10:25:20;;;;;;;11.45;4.97;;;;;;;14.30;51.81;98331.19;1690433;83;21124;-74
2022/04/08 10:27:47;;;;;;;8.40;4.60;;;;;;;14.27;52.29;98333.04;1689665;84;21619;-75
2022/04/08 10:30:23;;;;;;;10.58;4.58;;;;;;;14.30;52.17;98339.22;1687751;83;21125;-70
2022/04/08 10:33:03;;;;;;;11.63;5.00;;;;;;;14.35;51.77;98329.33;1688334;83;21054;-75
2022/04/08 10:35:33;;;;;;;11.30;4.60;;;;;;;14.47;52.11;98326.42;1701012;84;21054;-75
2022/04/08 10:38:04;;;;;;;10.58;4.87;;;;;;;14.63;51.94;98314.43;1689151;83;21047;-76
2022/04/08 10:40:37;;;;;;;12.10;5.37;;;;;;;14.76;51.40;98305.88;1692885;84;21542;-74
2022/04/08 10:43:10;;;;;;;9.93;5.40;;;;;;;14.78;51.28;98315.80;1691487;83;21065;-75
2022/04/08 10:45:39;;;;;;;9.90;5.17;;;;;;;14.73;51.43;98324.66;1697308;84;21130;-76
2022/04/08 10:48:14;;;;;;;8.63;5.05;;;;;;;14.69;51.63;98321.41;1688897;83;21060;-75
2022/04/08 10:50:43;;;;;;;8.85;4.67;;;;;;;14.69;51.77;98320.06;1693399;83;21098;-69
2022/04/08 10:53:16;;;;;;;8.60;5.15;;;;;;;14.33;51.59;98266.33;1694441;83;21082;-71
2022/04/08 10:55:54;;;;;;;16.12;6.00;;;;;;;14.60;51.70;98335.34;1696804;83;21090;-74
2022/04/08 10:58:43;;;;;;;16.00;5.85;;;;;;;14.53;51.85;98336.62;1703761;83;21007;-75
2022/04/08 11:01:19;;;;;;;13.93;6.28;;;;;;;14.41;52.42;98334.18;1690875;83;21151;-73
2022/04/08 11:03:56;;;;;;;21.30;6.60;;;;;;;14.29;52.54;98342.41;1724047;82;21136;-73
2022/04/08 11:06:30;;;;;;;14.13;6.33;;;;;;;14.25;52.96;98335.97;1720962;81;21070;-73
2022/04/08 11:09:12;;;;;;;13.08;5.08;;;;;;;14.24;52.93;98342.41;1726672;82;20994;-72
2022/04/08 11:11:46;;;;;;;11.07;5.53;;;;;;;14.21;53.23;98337.02;1704242;82;21081;-74
2022/04/08 11:14:14;;;;;;;11.57;5.90;;;;;;;14.21;53.60;98340.25;1698152;84;21115;-72
2022/04/08 11:16:42;;;;;;;12.88;6.12;;;;;;;14.18;53.74;98341.59;1686634;82;21129;-74
2022/04/08 11:19:11;;;;;;;10.53;5.78;;;;;;;14.15;54.31;98346.11;1697960;83;21059;-75
2022/04/08 11:21:42;;;;;;;11.10;6.37;;;;;;;14.11;54.42;98346.37;1697874;84;21114;-74
2022/04/08 11:24:14;;;;;;;8.48;5.95;;;;;;;14.08;54.93;98356.25;1705663;83;21030;-70
2022/04/08 11:26:50;;;;;;;9.68;5.53;;;;;;;14.06;56.39;98366.42;1700864;83;21538;-73
2022/04/08 11:29:23;;;;;;;12.53;5.67;;;;;;;13.98;59.21;98374.95;1700473;83;21031;-73
2022/04/08 11:31:55;;;;;;;16.55;7.45;;;;;;;13.79;61.41;98387.95;1701698;83;21099;-74
2022/04/08 11:34:26;;;;;;;11.65;6.05;;;;;;;13.56;63.48;98404.64;1705580;83;21320;-74
2022/04/08 11:36:57;;;;;;;6.28;2.37;;;;;;;13.27;65.74;98417.45;1706585;83;21037;-75
2022/04/08 11:39:26;;;;;;;3.95;1.15;;;;;;;12.91;67.74;98412.27;1698276;83;21046;-74
2022/04/08 11:41:56;;;;;;;1.22;0.88;;;;;;;12.53;68.79;98432.67;1682888;83;21140;-75
2022/04/08 11:44:25;;;;;;;0.85;0.75;;;;;;;12.20;69.33;98445.83;1698168;82;21112;-75
2022/04/08 11:47:06;;;;;;;2.08;0.82;;;;;;;11.93;71.33;98455.05;1709996;82;21548;-74